sensor_id;sensor_type;location;lat;lon;timestamp;pressure;altitude;pressure_sealevel;temperature;humidity
41636;BME280;27623;51.966;4.602;2023-06-04T00:00:05;64943.63;;;17.50;55.38
41636;BME280;27623;51.966;4.602;2023-06-04T00:02:31;64970.88;;;17.49;55.54
41636;BME280;27623;51.966;4.602;2023-06-04T00:04:56;64969.22;;;17.47;55.43
41636;BME280;27623;51.966;4.602;2023-06-04T00:07:21;64979.09;;;17.57;55.14
41636;BME280;27623;51.966;4.602;2023-06-04T00:09:47;64963.59;;;17.40;55.69
41636;BME280;27623;51.966;4.602;2023-06-04T00:12:13;64937.84;;;17.40;55.66
41636;BME280;27623;51.966;4.602;2023-06-04T00:14:38;64960.44;;;17.23;56.34
41636;BME280;27623;51.966;4.602;2023-06-04T00:17:04;64933.69;;;17.31;56.14
41636;BME280;27623;51.966;4.602;2023-06-04T00:19:29;64957.97;;;17.32;56.19
41636;BME280;27623;51.966;4.602;2023-06-04T00:21:55;64958.97;;;17.24;56.42
41636;BME280;27623;51.966;4.602;2023-06-04T00:24:20;64907.69;;;17.19;56.78
41636;BME280;27623;51.966;4.602;2023-06-04T00:26:45;64948.66;;;17.24;56.18
41636;BME280;27623;51.966;4.602;2023-06-04T00:29:11;64929.94;;;17.21;56.17
41636;BME280;27623;51.966;4.602;2023-06-04T00:31:36;64923.34;;;17.14;56.28
41636;BME280;27623;51.966;4.602;2023-06-04T00:34:03;64918.41;;;17.10;56.60
41636;BME280;27623;51.966;4.602;2023-06-04T00:36:29;64883.81;;;16.92;57.36
41636;BME280;27623;51.966;4.602;2023-06-04T00:38:57;64913.72;;;17.01;57.21
41636;BME280;27623;51.966;4.602;2023-06-04T00:41:23;64909.50;;;16.99;57.12
41636;BME280;27623;51.966;4.602;2023-06-04T00:43:48;64906.47;;;17.08;56.80
41636;BME280;27623;51.966;4.602;2023-06-04T00:46:20;64908.97;;;16.99;56.80
41636;BME280;27623;51.966;4.602;2023-06-04T00:48:46;64908.59;;;17.01;57.50
41636;BME280;27623;51.966;4.602;2023-06-04T00:51:11;64908.41;;;16.98;57.31
41636;BME280;27623;51.966;4.602;2023-06-04T00:53:37;64912.19;;;16.85;57.17
41636;BME280;27623;51.966;4.602;2023-06-04T00:56:05;64852.84;;;16.82;57.01
41636;BME280;27623;51.966;4.602;2023-06-04T00:58:32;64861.72;;;16.76;57.56
41636;BME280;27623;51.966;4.602;2023-06-04T01:01:03;64891.28;;;16.80;57.60
41636;BME280;27623;51.966;4.602;2023-06-04T01:03:31;64872.56;;;16.77;57.35
41636;BME280;27623;51.966;4.602;2023-06-04T01:06:04;64871.47;;;16.76;57.90
41636;BME280;27623;51.966;4.602;2023-06-04T01:08:35;64851.00;;;16.62;58.66
41636;BME280;27623;51.966;4.602;2023-06-04T01:11:00;64864.09;;;16.57;58.42
41636;BME280;27623;51.966;4.602;2023-06-04T01:13:26;64795.06;;;16.48;59.31
41636;BME280;27623;51.966;4.602;2023-06-04T01:15:53;64853.56;;;16.62;58.43
41636;BME280;27623;51.966;4.602;2023-06-04T01:18:25;64841.69;;;16.53;58.43
41636;BME280;27623;51.966;4.602;2023-06-04T01:21:03;64826.16;;;16.43;58.95
41636;BME280;27623;51.966;4.602;2023-06-04T01:26:13;64846.28;;;16.53;58.71
41636;BME280;27623;51.966;4.602;2023-06-04T01:28:39;64827.16;;;16.35;58.96
41636;BME280;27623;51.966;4.602;2023-06-04T01:31:05;64873.63;;;16.37;59.36
41636;BME280;27623;51.966;4.602;2023-06-04T01:33:34;64819.59;;;16.37;59.54
41636;BME280;27623;51.966;4.602;2023-06-04T01:36:00;64805.91;;;16.25;60.11
41636;BME280;27623;51.966;4.602;2023-06-04T01:38:26;64825.19;;;16.28;59.40
41636;BME280;27623;51.966;4.602;2023-06-04T01:40:51;64790.88;;;16.23;59.68
41636;BME280;27623;51.966;4.602;2023-06-04T01:43:21;64789.56;;;16.26;59.97
41636;BME280;27623;51.966;4.602;2023-06-04T01:45:46;64800.47;;;16.20;60.20
41636;BME280;27623;51.966;4.602;2023-06-04T01:48:13;64831.31;;;16.20;60.08
41636;BME280;27623;51.966;4.602;2023-06-04T01:50:41;64835.53;;;16.21;59.73
41636;BME280;27623;51.966;4.602;2023-06-04T01:53:09;64798.63;;;15.99;61.01
41636;BME280;27623;51.966;4.602;2023-06-04T01:55:34;64764.59;;;16.05;60.66
41636;BME280;27623;51.966;4.602;2023-06-04T01:58:03;64775.88;;;15.97;60.57
41636;BME280;27623;51.966;4.602;2023-06-04T02:00:29;64776.13;;;16.09;59.79
41636;BME280;27623;51.966;4.602;2023-06-04T02:02:54;64786.78;;;16.07;59.74
41636;BME280;27623;51.966;4.602;2023-06-04T02:05:21;64772.25;;;15.89;60.72
41636;BME280;27623;51.966;4.602;2023-06-04T02:07:47;64792.38;;;15.98;60.34
41636;BME280;27623;51.966;4.602;2023-06-04T02:10:18;64757.16;;;15.94;60.78
41636;BME280;27623;51.966;4.602;2023-06-04T02:12:58;64789.69;;;15.88;60.58
41636;BME280;27623;51.966;4.602;2023-06-04T02:15:25;64757.88;;;15.73;60.85
41636;BME280;27623;51.966;4.602;2023-06-04T02:17:57;64712.50;;;15.78;60.70
41636;BME280;27623;51.966;4.602;2023-06-04T02:20:27;64762.09;;;15.74;60.60
41636;BME280;27623;51.966;4.602;2023-06-04T02:22:55;64777.44;;;15.81;60.53
41636;BME280;27623;51.966;4.602;2023-06-04T02:25:26;64777.81;;;15.79;60.31
41636;BME280;27623;51.966;4.602;2023-06-04T02:27:51;64722.66;;;15.45;61.19
41636;BME280;27623;51.966;4.602;2023-06-04T02:30:16;64712.34;;;15.52;61.55
41636;BME280;27623;51.966;4.602;2023-06-04T02:32:42;64727.81;;;15.45;62.03
41636;BME280;27623;51.966;4.602;2023-06-04T02:35:09;64717.66;;;15.55;60.90
41636;BME280;27623;51.966;4.602;2023-06-04T02:37:35;64764.75;;;15.60;60.93
41636;BME280;27623;51.966;4.602;2023-06-04T02:40:00;64752.31;;;15.58;61.15
41636;BME280;27623;51.966;4.602;2023-06-04T02:42:26;64722.63;;;15.52;61.17
41636;BME280;27623;51.966;4.602;2023-06-04T02:44:51;64725.91;;;15.55;60.62
41636;BME280;27623;51.966;4.602;2023-06-04T02:47:19;64712.31;;;15.35;61.32
41636;BME280;27623;51.966;4.602;2023-06-04T02:49:44;64726.78;;;15.37;61.90
41636;BME280;27623;51.966;4.602;2023-06-04T02:52:11;64716.34;;;15.34;61.25
41636;BME280;27623;51.966;4.602;2023-06-04T02:54:36;64716.34;;;15.34;61.85
41636;BME280;27623;51.966;4.602;2023-06-04T02:57:02;64698.78;;;15.25;61.77
41636;BME280;27623;51.966;4.602;2023-06-04T02:59:27;64697.66;;;15.31;61.67
41636;BME280;27623;51.966;4.602;2023-06-04T03:01:55;64692.13;;;15.33;61.71
41636;BME280;27623;51.966;4.602;2023-06-04T03:04:20;64705.16;;;15.36;61.40
41636;BME280;27623;51.966;4.602;2023-06-04T03:06:46;64689.41;;;15.07;63.00
41636;BME280;27623;51.966;4.602;2023-06-04T03:09:12;64703.38;;;15.25;62.06
41636;BME280;27623;51.966;4.602;2023-06-04T03:11:38;64684.94;;;15.17;62.18
41636;BME280;27623;51.966;4.602;2023-06-04T03:14:03;64662.09;;;15.05;62.30
41636;BME280;27623;51.966;4.602;2023-06-04T03:16:29;64705.69;;;15.12;62.25
41636;BME280;27623;51.966;4.602;2023-06-04T03:18:54;64680.28;;;15.01;63.11
41636;BME280;27623;51.966;4.602;2023-06-04T03:21:20;64686.13;;;15.04;62.91
41636;BME280;27623;51.966;4.602;2023-06-04T03:23:46;64627.56;;;14.95;62.57
41636;BME280;27623;51.966;4.602;2023-06-04T03:26:11;64669.53;;;14.93;62.48
41636;BME280;27623;51.966;4.602;2023-06-04T03:28:39;64643.16;;;14.90;63.05
41636;BME280;27623;51.966;4.602;2023-06-04T03:31:05;64655.13;;;14.85;63.14
41636;BME280;27623;51.966;4.602;2023-06-04T03:33:30;64666.41;;;14.93;62.96
41636;BME280;27623;51.966;4.602;2023-06-04T03:35:56;64650.19;;;14.80;63.12
41636;BME280;27623;51.966;4.602;2023-06-04T03:38:26;64666.63;;;14.88;63.07
41636;BME280;27623;51.966;4.602;2023-06-04T03:40:51;64631.63;;;14.87;63.07
41636;BME280;27623;51.966;4.602;2023-06-04T03:43:19;64663.53;;;14.88;62.92
41636;BME280;27623;51.966;4.602;2023-06-04T03:45:44;64673.63;;;14.85;62.79
41636;BME280;27623;51.966;4.602;2023-06-04T03:48:10;64643.53;;;14.88;62.87
41636;BME280;27623;51.966;4.602;2023-06-04T03:50:36;64659.31;;;14.86;62.19
41636;BME280;27623;51.966;4.602;2023-06-04T03:53:01;64621.13;;;14.74;63.11
41636;BME280;27623;51.966;4.602;2023-06-04T03:55:30;64658.22;;;14.85;62.82
41636;BME280;27623;51.966;4.602;2023-06-04T03:57:57;64638.84;;;14.79;62.71
41636;BME280;27623;51.966;4.602;2023-06-04T04:00:23;64612.38;;;14.66;63.09
41636;BME280;27623;51.966;4.602;2023-06-04T04:02:49;64627.16;;;14.73;62.58
41636;BME280;27623;51.966;4.602;2023-06-04T04:05:14;64613.97;;;14.75;61.91
41636;BME280;27623;51.966;4.602;2023-06-04T04:07:40;64620.41;;;14.71;62.65
41636;BME280;27623;51.966;4.602;2023-06-04T04:10:08;64619.19;;;14.61;62.95
41636;BME280;27623;51.966;4.602;2023-06-04T04:12:35;64638.53;;;14.74;62.68
41636;BME280;27623;51.966;4.602;2023-06-04T04:15:00;64631.81;;;14.65;62.54
41636;BME280;27623;51.966;4.602;2023-06-04T04:17:25;64592.56;;;14.69;62.56
41636;BME280;27623;51.966;4.602;2023-06-04T04:19:51;64579.75;;;14.69;62.87
41636;BME280;27623;51.966;4.602;2023-06-04T04:22:16;64641.13;;;14.67;62.58
41636;BME280;27623;51.966;4.602;2023-06-04T04:24:43;64624.78;;;14.75;62.94
41636;BME280;27623;51.966;4.602;2023-06-04T04:27:09;64663.09;;;14.73;62.62
41636;BME280;27623;51.966;4.602;2023-06-04T04:29:36;64646.53;;;14.79;62.86
41636;BME280;27623;51.966;4.602;2023-06-04T04:32:02;64633.59;;;14.69;62.91
41636;BME280;27623;51.966;4.602;2023-06-04T04:34:36;64596.44;;;14.66;63.13
41636;BME280;27623;51.966;4.602;2023-06-04T04:37:03;64640.75;;;14.69;63.39
41636;BME280;27623;51.966;4.602;2023-06-04T04:39:28;64612.81;;;14.57;64.25
41636;BME280;27623;51.966;4.602;2023-06-04T04:41:54;64606.75;;;14.59;64.34
41636;BME280;27623;51.966;4.602;2023-06-04T04:44:20;64618.25;;;14.62;63.98
41636;BME280;27623;51.966;4.602;2023-06-04T04:46:47;64620.56;;;14.74;63.55
41636;BME280;27623;51.966;4.602;2023-06-04T04:49:12;64649.94;;;14.92;63.16
41636;BME280;27623;51.966;4.602;2023-06-04T04:51:41;64640.31;;;14.78;64.28
41636;BME280;27623;51.966;4.602;2023-06-04T04:54:06;64648.06;;;14.71;64.40
41636;BME280;27623;51.966;4.602;2023-06-04T04:56:35;64628.81;;;14.74;65.01
41636;BME280;27623;51.966;4.602;2023-06-04T04:59:01;64662.59;;;14.89;64.35
41636;BME280;27623;51.966;4.602;2023-06-04T05:01:27;64663.19;;;14.83;64.84
41636;BME280;27623;51.966;4.602;2023-06-04T05:03:52;64643.59;;;14.81;64.49
41636;BME280;27623;51.966;4.602;2023-06-04T05:06:17;64653.03;;;14.92;64.17
41636;BME280;27623;51.966;4.602;2023-06-04T05:08:43;64612.81;;;14.81;64.07
41636;BME280;27623;51.966;4.602;2023-06-04T05:11:08;64657.72;;;14.77;64.38
41636;BME280;27623;51.966;4.602;2023-06-04T05:13:34;64645.13;;;14.73;64.30
41636;BME280;27623;51.966;4.602;2023-06-04T05:16:02;64663.31;;;14.92;63.27
41636;BME280;27623;51.966;4.602;2023-06-04T05:18:39;64671.00;;;14.92;63.51
41636;BME280;27623;51.966;4.602;2023-06-04T05:21:09;64657.78;;;14.94;63.05
41636;BME280;27623;51.966;4.602;2023-06-04T05:23:38;64668.16;;;15.04;63.93
41636;BME280;27623;51.966;4.602;2023-06-04T05:26:04;64682.97;;;15.10;63.16
41636;BME280;27623;51.966;4.602;2023-06-04T05:28:30;64684.38;;;15.17;63.46
41636;BME280;27623;51.966;4.602;2023-06-04T05:30:58;64684.81;;;15.07;63.23
41636;BME280;27623;51.966;4.602;2023-06-04T05:33:26;64667.22;;;15.05;63.41
41636;BME280;27623;51.966;4.602;2023-06-04T05:35:52;64711.53;;;15.16;62.84
41636;BME280;27623;51.966;4.602;2023-06-04T05:38:19;64665.25;;;15.23;63.03
41636;BME280;27623;51.966;4.602;2023-06-04T05:40:45;64729.66;;;15.42;62.67
41636;BME280;27623;51.966;4.602;2023-06-04T05:43:11;64740.59;;;15.52;62.00
41636;BME280;27623;51.966;4.602;2023-06-04T05:45:38;64730.31;;;15.52;62.06
41636;BME280;27623;51.966;4.602;2023-06-04T05:48:04;64724.25;;;15.54;62.15
41636;BME280;27623;51.966;4.602;2023-06-04T05:50:30;64710.03;;;15.40;62.89
41636;BME280;27623;51.966;4.602;2023-06-04T05:52:58;64704.22;;;15.37;62.75
41636;BME280;27623;51.966;4.602;2023-06-04T05:55:23;64727.31;;;15.37;62.28
41636;BME280;27623;51.966;4.602;2023-06-04T05:57:50;64707.94;;;15.31;62.13
41636;BME280;27623;51.966;4.602;2023-06-04T06:00:17;64722.88;;;15.40;62.34
41636;BME280;27623;51.966;4.602;2023-06-04T06:02:42;64712.78;;;15.43;61.95
41636;BME280;27623;51.966;4.602;2023-06-04T06:05:08;64744.25;;;15.53;62.53
41636;BME280;27623;51.966;4.602;2023-06-04T06:07:34;64714.19;;;15.49;62.71
41636;BME280;27623;51.966;4.602;2023-06-04T06:10:00;64750.31;;;15.52;63.06
41636;BME280;27623;51.966;4.602;2023-06-04T06:12:28;64749.94;;;15.54;62.35
41636;BME280;27623;51.966;4.602;2023-06-04T06:14:53;64725.91;;;15.55;62.26
41636;BME280;27623;51.966;4.602;2023-06-04T06:17:18;64752.31;;;15.58;62.03
41636;BME280;27623;51.966;4.602;2023-06-04T06:19:44;64729.59;;;15.56;62.66
41636;BME280;27623;51.966;4.602;2023-06-04T06:22:09;64751.25;;;15.50;62.63
41636;BME280;27623;51.966;4.602;2023-06-04T06:24:35;64747.19;;;15.58;62.66
41636;BME280;27623;51.966;4.602;2023-06-04T06:27:01;64728.41;;;15.62;63.00
41636;BME280;27623;51.966;4.602;2023-06-04T06:29:26;64763.84;;;15.62;63.28
41636;BME280;27623;51.966;4.602;2023-06-04T06:31:51;64739.41;;;15.65;62.89
41636;BME280;27623;51.966;4.602;2023-06-04T06:34:17;64765.31;;;15.61;62.01
41636;BME280;27623;51.966;4.602;2023-06-04T06:36:42;64758.38;;;15.57;62.27
41636;BME280;27623;51.966;4.602;2023-06-04T06:39:09;64761.44;;;15.64;61.88
41636;BME280;27623;51.966;4.602;2023-06-04T06:41:36;64763.94;;;15.71;62.59
41636;BME280;27623;51.966;4.602;2023-06-04T06:44:03;64747.16;;;15.82;61.51
41636;BME280;27623;51.966;4.602;2023-06-04T06:46:29;64776.09;;;15.68;61.35
41636;BME280;27623;51.966;4.602;2023-06-04T06:48:57;64773.09;;;15.77;61.54
41636;BME280;27623;51.966;4.602;2023-06-04T06:51:22;64787.13;;;15.88;61.37
41636;BME280;27623;51.966;4.602;2023-06-04T06:53:51;64789.88;;;15.91;60.87
41636;BME280;27623;51.966;4.602;2023-06-04T06:56:16;64805.28;;;15.91;61.25
41636;BME280;27623;51.966;4.602;2023-06-04T06:58:47;64759.19;;;15.93;62.08
41636;BME280;27623;51.966;4.602;2023-06-04T07:01:13;64818.09;;;15.98;61.25
41636;BME280;27623;51.966;4.602;2023-06-04T07:03:38;64791.06;;;16.01;60.83
41636;BME280;27623;51.966;4.602;2023-06-04T07:06:05;64809.03;;;16.01;60.47
41636;BME280;27623;51.966;4.602;2023-06-04T07:08:31;64813.25;;;16.03;60.58
41636;BME280;27623;51.966;4.602;2023-06-04T07:10:58;64799.25;;;16.09;60.86
41636;BME280;27623;51.966;4.602;2023-06-04T07:13:23;64865.69;;;16.18;60.98
41636;BME280;27623;51.966;4.602;2023-06-04T07:15:48;64796.25;;;16.18;60.53
41636;BME280;27623;51.966;4.602;2023-06-04T07:18:14;64826.72;;;16.20;60.76
41636;BME280;27623;51.966;4.602;2023-06-04T07:20:39;64834.38;;;16.27;60.14
41636;BME280;27623;51.966;4.602;2023-06-04T07:23:05;64833.38;;;16.36;60.01
41636;BME280;27623;51.966;4.602;2023-06-04T07:25:32;64860.50;;;16.42;60.06
41636;BME280;27623;51.966;4.602;2023-06-04T07:28:00;64839.34;;;16.48;61.02
41636;BME280;27623;51.966;4.602;2023-06-04T07:30:29;64835.84;;;16.50;60.16
41636;BME280;27623;51.966;4.602;2023-06-04T07:32:55;64863.16;;;16.59;59.89
41636;BME280;27623;51.966;4.602;2023-06-04T07:35:21;64881.09;;;16.66;59.06
41636;BME280;27623;51.966;4.602;2023-06-04T07:37:46;64910.84;;;16.72;59.21
41636;BME280;27623;51.966;4.602;2023-06-04T07:40:14;64915.09;;;16.90;57.85
41636;BME280;27623;51.966;4.602;2023-06-04T07:42:41;64919.16;;;16.89;57.37
41636;BME280;27623;51.966;4.602;2023-06-04T07:45:08;64932.06;;;17.06;56.78
41636;BME280;27623;51.966;4.602;2023-06-04T07:47:38;64921.75;;;17.06;57.38
41636;BME280;27623;51.966;4.602;2023-06-04T07:50:04;64924.66;;;17.11;57.99
41636;BME280;27623;51.966;4.602;2023-06-04T07:52:30;64946.53;;;17.14;58.02
41636;BME280;27623;51.966;4.602;2023-06-04T07:54:56;64945.94;;;17.21;56.08
41636;BME280;27623;51.966;4.602;2023-06-04T07:57:21;64962.94;;;17.30;56.07
41636;BME280;27623;51.966;4.602;2023-06-04T07:59:47;64939.00;;;17.34;56.43
41636;BME280;27623;51.966;4.602;2023-06-04T08:02:12;64971.13;;;17.44;56.16
41636;BME280;27623;51.966;4.602;2023-06-04T08:04:39;64973.63;;;17.51;56.09
41636;BME280;27623;51.966;4.602;2023-06-04T08:07:05;65021.22;;;17.62;56.32
41636;BME280;27623;51.966;4.602;2023-06-04T08:09:31;65004.75;;;17.71;55.96
41636;BME280;27623;51.966;4.602;2023-06-04T08:11:56;65038.00;;;17.82;53.68
41636;BME280;27623;51.966;4.602;2023-06-04T08:14:21;65031.50;;;17.86;54.58
41636;BME280;27623;51.966;4.602;2023-06-04T08:16:47;65066.94;;;18.00;54.46
41636;BME280;27623;51.966;4.602;2023-06-04T08:19:12;65043.88;;;18.02;52.82
41636;BME280;27623;51.966;4.602;2023-06-04T08:21:38;65040.84;;;18.11;52.58
41636;BME280;27623;51.966;4.602;2023-06-04T08:24:05;65098.31;;;18.14;53.02
41636;BME280;27623;51.966;4.602;2023-06-04T08:26:31;65091.59;;;18.23;52.86
41636;BME280;27623;51.966;4.602;2023-06-04T08:28:57;65083.72;;;18.37;53.20
41636;BME280;27623;51.966;4.602;2023-06-04T08:31:23;65152.41;;;18.45;52.68
41636;BME280;27623;51.966;4.602;2023-06-04T08:33:48;65083.19;;;18.53;52.45
41636;BME280;27623;51.966;4.602;2023-06-04T08:36:14;65155.44;;;18.60;53.56
41636;BME280;27623;51.966;4.602;2023-06-04T08:38:41;65161.38;;;18.73;53.75
41636;BME280;27623;51.966;4.602;2023-06-04T08:41:20;65163.38;;;18.79;52.82
41636;BME280;27623;51.966;4.602;2023-06-04T08:43:48;65142.66;;;18.86;53.00
41636;BME280;27623;51.966;4.602;2023-06-04T08:46:15;65153.06;;;18.96;54.11
41636;BME280;27623;51.966;4.602;2023-06-04T08:48:43;65223.63;;;19.09;53.64
41636;BME280;27623;51.966;4.602;2023-06-04T08:51:11;65204.44;;;19.25;53.61
41636;BME280;27623;51.966;4.602;2023-06-04T08:53:39;65235.41;;;19.32;53.79
41636;BME280;27623;51.966;4.602;2023-06-04T08:56:05;65218.31;;;19.40;53.75
41636;BME280;27623;51.966;4.602;2023-06-04T08:58:33;65233.78;;;19.47;53.64
41636;BME280;27623;51.966;4.602;2023-06-04T09:01:00;65241.63;;;19.56;54.18
41636;BME280;27623;51.966;4.602;2023-06-04T09:03:27;65277.38;;;19.66;53.72
41636;BME280;27623;51.966;4.602;2023-06-04T09:05:54;65280.75;;;19.78;54.72
41636;BME280;27623;51.966;4.602;2023-06-04T09:08:21;65306.31;;;19.90;53.76
41636;BME280;27623;51.966;4.602;2023-06-04T09:10:50;65315.09;;;19.98;53.04
41636;BME280;27623;51.966;4.602;2023-06-04T09:13:18;65315.97;;;20.04;53.53
41636;BME280;27623;51.966;4.602;2023-06-04T09:15:44;65321.00;;;20.18;54.03
41636;BME280;27623;51.966;4.602;2023-06-04T09:18:09;65364.25;;;20.39;53.50
41636;BME280;27623;51.966;4.602;2023-06-04T09:20:35;65346.22;;;20.48;51.80
41636;BME280;27623;51.966;4.602;2023-06-04T09:23:00;65384.75;;;20.60;52.51
41636;BME280;27623;51.966;4.602;2023-06-04T09:25:27;65387.81;;;20.68;52.69
41636;BME280;27623;51.966;4.602;2023-06-04T09:28:05;65407.28;;;20.81;50.97
41636;BME280;27623;51.966;4.602;2023-06-04T09:30:31;65419.47;;;20.85;51.58
41636;BME280;27623;51.966;4.602;2023-06-04T09:33:06;65459.91;;;20.93;51.48
41636;BME280;27623;51.966;4.602;2023-06-04T09:35:31;65421.22;;;20.96;51.55
41636;BME280;27623;51.966;4.602;2023-06-04T09:37:57;65435.34;;;21.07;51.28
41636;BME280;27623;51.966;4.602;2023-06-04T09:40:23;65477.22;;;21.21;51.92
41636;BME280;27623;51.966;4.602;2023-06-04T09:42:50;65502.63;;;21.38;50.87
41636;BME280;27623;51.966;4.602;2023-06-04T09:45:35;65518.97;;;21.50;50.89
41636;BME280;27623;51.966;4.602;2023-06-04T09:48:02;65547.44;;;21.57;49.25
41636;BME280;27623;51.966;4.602;2023-06-04T09:50:32;65515.59;;;21.71;51.31
41636;BME280;27623;51.966;4.602;2023-06-04T09:53:18;65555.84;;;21.84;50.55
41636;BME280;27623;51.966;4.602;2023-06-04T09:55:56;65595.41;;;21.94;49.54
41636;BME280;27623;51.966;4.602;2023-06-04T09:58:23;65564.34;;;22.04;49.34
41636;BME280;27623;51.966;4.602;2023-06-04T10:00:50;65582.13;;;22.06;48.33
41636;BME280;27623;51.966;4.602;2023-06-04T10:03:16;65613.31;;;22.23;49.01
41636;BME280;27623;51.966;4.602;2023-06-04T10:05:43;65600.78;;;22.31;48.91
41636;BME280;27623;51.966;4.602;2023-06-04T10:08:13;65627.00;;;22.43;49.28
41636;BME280;27623;51.966;4.602;2023-06-04T10:10:42;65636.50;;;22.54;48.50
41636;BME280;27623;51.966;4.602;2023-06-04T10:13:18;65683.22;;;22.61;46.20
41636;BME280;27623;51.966;4.602;2023-06-04T10:15:47;65696.81;;;22.71;47.29
41636;BME280;27623;51.966;4.602;2023-06-04T10:18:14;65696.53;;;22.83;46.33
41636;BME280;27623;51.966;4.602;2023-06-04T10:20:41;65728.44;;;22.86;45.54
41636;BME280;27623;51.966;4.602;2023-06-04T10:23:06;65712.75;;;22.93;45.54
41636;BME280;27623;51.966;4.602;2023-06-04T10:25:35;65724.19;;;23.01;45.82
41636;BME280;27623;51.966;4.602;2023-06-04T10:28:04;65734.56;;;23.18;45.30
41636;BME280;27623;51.966;4.602;2023-06-04T10:30:30;65765.31;;;23.27;45.19
41636;BME280;27623;51.966;4.602;2023-06-04T10:32:59;65757.97;;;23.35;45.70
41636;BME280;27623;51.966;4.602;2023-06-04T10:35:34;65761.91;;;23.48;44.89
41636;BME280;27623;51.966;4.602;2023-06-04T10:38:10;65846.38;;;23.58;44.53
41636;BME280;27623;51.966;4.602;2023-06-04T10:40:37;65817.28;;;23.68;44.15
41636;BME280;27623;51.966;4.602;2023-06-04T10:45:32;65860.44;;;23.83;45.20
41636;BME280;27623;51.966;4.602;2023-06-04T10:48:01;65875.09;;;24.02;44.87
41636;BME280;27623;51.966;4.602;2023-06-04T10:50:27;65849.38;;;23.90;41.01
41636;BME280;27623;51.966;4.602;2023-06-04T10:52:54;65849.59;;;24.02;41.70
41636;BME280;27623;51.966;4.602;2023-06-04T10:55:20;65859.78;;;24.07;42.01
41636;BME280;27623;51.966;4.602;2023-06-04T10:57:56;65861.09;;;24.20;42.76
41636;BME280;27623;51.966;4.602;2023-06-04T11:00:37;65868.31;;;24.10;42.26
41636;BME280;27623;51.966;4.602;2023-06-04T11:03:04;65894.09;;;24.14;40.11
41636;BME280;27623;51.966;4.602;2023-06-04T11:05:41;65950.72;;;24.45;40.00
41636;BME280;27623;51.966;4.602;2023-06-04T11:08:08;65929.47;;;24.47;38.02
41636;BME280;27623;51.966;4.602;2023-06-04T11:10:39;65949.44;;;24.58;40.16
41636;BME280;27623;51.966;4.602;2023-06-04T11:13:05;65970.53;;;24.70;39.29
41636;BME280;27623;51.966;4.602;2023-06-04T11:15:46;65989.19;;;24.85;38.50
41636;BME280;27623;51.966;4.602;2023-06-04T11:18:22;65992.34;;;25.02;37.61
41636;BME280;27623;51.966;4.602;2023-06-04T11:20:58;66034.00;;;25.09;38.25
41636;BME280;27623;51.966;4.602;2023-06-04T11:23:24;66028.94;;;25.12;37.31
41636;BME280;27623;51.966;4.602;2023-06-04T11:25:52;66006.66;;;24.89;38.10
41636;BME280;27623;51.966;4.602;2023-06-04T11:28:20;65960.41;;;24.75;38.09
41636;BME280;27623;51.966;4.602;2023-06-04T11:31:01;66003.31;;;25.03;38.10
41636;BME280;27623;51.966;4.602;2023-06-04T11:33:42;66040.53;;;25.22;38.89
41636;BME280;27623;51.966;4.602;2023-06-04T11:36:08;66108.00;;;25.41;38.07
41636;BME280;27623;51.966;4.602;2023-06-04T11:38:33;66134.72;;;25.51;38.51
41636;BME280;27623;51.966;4.602;2023-06-04T11:41:02;66136.97;;;25.70;37.58
41636;BME280;27623;51.966;4.602;2023-06-04T11:43:30;66139.22;;;25.82;36.99
41636;BME280;27623;51.966;4.602;2023-06-04T11:45:57;66109.06;;;25.92;37.06
41636;BME280;27623;51.966;4.602;2023-06-04T11:48:23;66180.16;;;26.10;37.04
41636;BME280;27623;51.966;4.602;2023-06-04T11:50:48;66163.44;;;26.18;36.63
41636;BME280;27623;51.966;4.602;2023-06-04T11:53:14;66173.22;;;26.25;36.98
41636;BME280;27623;51.966;4.602;2023-06-04T11:55:39;66180.50;;;26.24;36.14
41636;BME280;27623;51.966;4.602;2023-06-04T11:58:05;66251.81;;;26.44;35.94
41636;BME280;27623;51.966;4.602;2023-06-04T12:00:31;66277.09;;;26.55;36.09
41636;BME280;27623;51.966;4.602;2023-06-04T12:02:56;66226.28;;;26.54;35.37
41636;BME280;27623;51.966;4.602;2023-06-04T12:05:27;66217.97;;;26.47;35.86
41636;BME280;27623;51.966;4.602;2023-06-04T12:08:09;66204.09;;;26.51;35.33
41636;BME280;27623;51.966;4.602;2023-06-04T12:13:04;66199.69;;;26.30;35.85
41636;BME280;27623;51.966;4.602;2023-06-04T12:15:30;66228.50;;;26.56;36.20
41636;BME280;27623;51.966;4.602;2023-06-04T12:17:55;66254.31;;;26.68;35.96
41636;BME280;27623;51.966;4.602;2023-06-04T12:20:50;66287.75;;;26.84;35.35
41636;BME280;27623;51.966;4.602;2023-06-04T12:23:21;66330.31;;;27.04;35.33
41636;BME280;27623;51.966;4.602;2023-06-04T12:25:51;66313.44;;;27.10;35.02
41636;BME280;27623;51.966;4.602;2023-06-04T12:28:17;66259.38;;;26.82;34.60
41636;BME280;27623;51.966;4.602;2023-06-04T12:30:43;66312.25;;;26.83;34.03
41636;BME280;27623;51.966;4.602;2023-06-04T12:33:12;66275.00;;;26.73;34.61
41636;BME280;27623;51.966;4.602;2023-06-04T12:35:38;66315.13;;;26.95;34.64
41636;BME280;27623;51.966;4.602;2023-06-04T12:38:04;66333.56;;;27.14;34.52
41636;BME280;27623;51.966;4.602;2023-06-04T12:40:30;66353.88;;;27.21;33.62
41636;BME280;27623;51.966;4.602;2023-06-04T12:42:55;66291.72;;;26.97;33.25
41636;BME280;27623;51.966;4.602;2023-06-04T12:45:21;66351.47;;;27.33;33.97
41636;BME280;27623;51.966;4.602;2023-06-04T12:47:46;66446.69;;;27.65;33.79
41636;BME280;27623;51.966;4.602;2023-06-04T12:50:15;66441.38;;;27.72;33.11
41636;BME280;27623;51.966;4.602;2023-06-04T12:52:42;66455.09;;;27.82;32.98
41636;BME280;27623;51.966;4.602;2023-06-04T12:55:08;66452.22;;;27.87;33.09
41636;BME280;27623;51.966;4.602;2023-06-04T12:57:34;66473.88;;;28.06;32.99
41636;BME280;27623;51.966;4.602;2023-06-04T12:59:59;66414.56;;;27.88;33.21
41636;BME280;27623;51.966;4.602;2023-06-04T13:02:25;66485.13;;;28.19;32.58
41636;BME280;27623;51.966;4.602;2023-06-04T13:04:50;66514.31;;;28.24;31.98
41636;BME280;27623;51.966;4.602;2023-06-04T13:07:19;66490.84;;;28.44;32.34